GCHILPMA

Guest
Details From GCHI - Hierro
To LPMA - Madeira
Flight Number -
Tags generated
Created
Modified
Stats Distance 327 nm / 606 km
Max Altitude 35,000 ft / 10,668 m
Waypoints 5
Social Downloads 3
Likes 0
Share VATSIM

Download

Looking for another format? Having issues loading an existing format? Contact us
Advertisement - Login to hide

Notes

Basic altitude profile: - Ascent Rate: 2500ft/min - Ascent Speed: 250kts - Cruise Altitude: 35000ft - Cruise Speed: 420kts - Descent Rate: 1500ft/min - Descent Speed: 250kts

Route

GCHI GOMER UN866 BRICK UN728 ORTIS LPMA

ID Type Via Altitude Latitude Longitude Leg Dist Tot Dist Heading (true) Name
O GCHI APT - 0 ft / 0 m 27.81485˚ -17.88705˚ - 0 nm - Hierro
GOMER FIX - 11,200 ft / 3,414 m 28.00000˚ -17.33333˚ 31 nm 31 nm 69° / 69° -
BRICK FIX UN866 (AWY-HI) 35,000 ft / 10,668 m 29.59137˚ -16.37289˚ 108 nm 139 nm 28° / 28° -
ORTIS FIX UN728 (AWY-HI) 24,500 ft / 7,468 m 31.40696˚ -16.55691˚ 109 nm 248 nm 355° / 355° -
O LPMA APT - 0 ft / 0 m 32.69770˚ -16.77445˚ 78 nm 327 nm 352° / 352° Madeira

Altitude Profile

Advertisement - Login to hide

Weather


0- 5 10 15 20 25 30 35+ Temperature / ° C

Clouds and Precipitation
Forecast for 2017-12-12 18:00 UTC. Updated an hour ago

Ground ~20,000 ft ~40,000 ft Winds

GCHI

Details ICAO GCHI (VDE)
Name Hierro
Region Canary Islands
Timezone Atlantic/Canary (UTC+0.0)
Stats Elevation 337 ft / 103 m (AMSL)
Location 27.814848° -17.887052°
Runways 1
Magnetic Variation 5.629° W

METAR

GCHI 121630Z 02019G29KT 330V050 9999 VCSH SCT025TCU 20/13 Q1020

Decode

TAF

TAF GCHI 121400Z 1215/1315 03022KT 9999 SCT040 TX23/1315Z TN17/1306Z TEMPO 1215/1315 03022G32KT

Decode

Departure Runways

ID Width Length Bearing (true) Bearing (mag) Surface Threshold Offset Overrun Length
16 98 ft / 30 m 4,110 ft / 1,253 m 152.71° 158.34° Asphalt 0 ft / 0 m 112 ft / 34 m
34 98 ft / 30 m 4,110 ft / 1,253 m 332.71° 338.34° Asphalt 0 ft / 0 m 105 ft / 32 m

LPMA

Details ICAO LPMA (FNC)
Name Madeira
Region Portugal
Timezone Atlantic/Madeira (UTC+0.0)
Stats Elevation 192 ft / 59 m (AMSL)
Location 32.697704° -16.774449°
Runways 1
Magnetic Variation 4.982° W

METAR

LPMA 121630Z 02017KT 9999 BKN016 17/10 Q1023

Decode

TAF

TAF LPMA 121100Z 1212/1312 01018G30KT 9999 SCT015 TEMPO 1212/1312 01015KT 6000 -RA SCT012 FEW018TCU PROB30 TEMPO 1212/1312 01025G35KT

Decode

Destination Runways

ID Width Length Bearing (true) Bearing (mag) Surface Threshold Offset Overrun Length
05 141 ft / 43 m 8,683 ft / 2,647 m 42.98° 47.96° Asphalt 472 ft / 144 m 0 ft / 0 m
23 141 ft / 43 m 8,683 ft / 2,647 m 222.99° 227.97° Asphalt 466 ft / 142 m 0 ft / 0 m

Popular Alternatives